Time;durP1;ratioP1;P1;durP2;ratioP2;P2;SDS_P1;SDS_P2;PMS_P1;PMS_P2;Temp;Humidity;BMP_temperature;BMP_pressure;BME280_temperature;BME280_humidity;BME280_pressure;Samples;Min_cycle;Max_cycle;Signal;HPM_P1;HPM_P2
2020/09/20 00:00:50;;;;;;;17;13.65;;;;;;;11.63;82.07227;95135.86;;;;
2020/09/20 00:01:50;;;;;;;17;13.65;;;;;;;11.63;82.07227;95135.86;;;;
2020/09/20 00:02:51;;;;;;;17;13.65;;;;;;;11.63;82.07227;95135.86;;;;
2020/09/20 00:03:51;;;;;;;17;13.65;;;;;;;11.63;82.07227;95135.86;;;;
2020/09/20 00:04:52;;;;;;;14.8;13.25;;;;;;;11.49;82.37695;95135.38;;;;
2020/09/20 00:05:52;;;;;;;14.8;13.25;;;;;;;11.49;82.37695;95135.38;;;;
2020/09/20 00:06:53;;;;;;;14.8;13.25;;;;;;;11.49;82.37695;95135.38;;;;
2020/09/20 00:07:54;;;;;;;14.8;13.25;;;;;;;11.49;82.37695;95135.38;;;;
2020/09/20 00:08:54;;;;;;;14.8;13.25;;;;;;;11.49;82.37695;95135.38;;;;
2020/09/20 00:09:54;;;;;;;14.8;13.25;;;;;;;11.49;82.37695;95135.38;;;;
2020/09/20 00:10:55;;;;;;;14.8;13.25;;;;;;;11.49;82.37695;95135.38;;;;
2020/09/20 00:11:56;;;;;;;14.8;13.25;;;;;;;11.49;82.37695;95135.38;;;;
2020/09/20 00:12:56;;;;;;;14.8;13.25;;;;;;;11.49;82.37695;95135.38;;;;
2020/09/20 00:13:57;;;;;;;14.8;13.25;;;;;;;11.49;82.37695;95135.38;;;;
2020/09/20 00:14:57;;;;;;;16.05;13.5;;;;;;;11.41;82.73535;95120.08;;;;
2020/09/20 00:15:58;;;;;;;16.05;13.5;;;;;;;11.41;82.73535;95120.08;;;;
2020/09/20 00:16:59;;;;;;;16.05;13.5;;;;;;;11.41;82.73535;95120.08;;;;
2020/09/20 00:17:59;;;;;;;16.05;13.5;;;;;;;11.41;82.73535;95120.08;;;;
2020/09/20 00:19:00;;;;;;;16.05;13.5;;;;;;;11.41;82.73535;95120.08;;;;
2020/09/20 00:20:00;;;;;;;16.05;13.5;;;;;;;11.41;82.73535;95120.08;;;;
2020/09/20 00:21:01;;;;;;;16.05;13.5;;;;;;;11.41;82.73535;95120.08;;;;
2020/09/20 00:22:02;;;;;;;16.05;13.5;;;;;;;11.41;82.73535;95120.08;;;;
2020/09/20 00:23:02;;;;;;;16.05;13.5;;;;;;;11.41;82.73535;95120.08;;;;
2020/09/20 00:24:03;;;;;;;16.05;13.5;;;;;;;11.41;82.73535;95120.08;;;;
2020/09/20 00:25:03;;;;;;;16.05;13.5;;;;;;;11.41;82.73535;95120.08;;;;
2020/09/20 00:26:04;;;;;;;15.25;13.05;;;;;;;11.27;83.04004;95116.05;;;;
2020/09/20 00:27:04;;;;;;;15.25;13.05;;;;;;;11.27;83.04004;95116.05;;;;
2020/09/20 00:28:05;;;;;;;15.25;13.05;;;;;;;11.27;83.04004;95116.05;;;;
2020/09/20 00:29:05;;;;;;;15.25;13.05;;;;;;;11.27;83.04004;95116.05;;;;
2020/09/20 00:30:06;;;;;;;15.25;13.05;;;;;;;11.27;83.04004;95116.05;;;;
2020/09/20 00:31:06;;;;;;;15.25;13.05;;;;;;;11.27;83.04004;95116.05;;;;
2020/09/20 00:32:07;;;;;;;15.25;13.05;;;;;;;11.27;83.04004;95116.05;;;;
2020/09/20 00:33:07;;;;;;;15.25;13.05;;;;;;;11.27;83.04004;95116.05;;;;
2020/09/20 00:34:08;;;;;;;15.25;13.05;;;;;;;11.27;83.04004;95116.05;;;;
2020/09/20 00:35:08;;;;;;;15.25;13.05;;;;;;;11.27;83.04004;95116.05;;;;
2020/09/20 00:36:09;;;;;;;14.8;12.75;;;;;;;11.18;83.36816;95114.29;;;;
2020/09/20 00:37:09;;;;;;;14.8;12.75;;;;;;;11.18;83.36816;95114.29;;;;
2020/09/20 00:38:10;;;;;;;14.8;12.75;;;;;;;11.18;83.36816;95114.29;;;;
2020/09/20 00:39:10;;;;;;;14.8;12.75;;;;;;;11.18;83.36816;95114.29;;;;
2020/09/20 00:40:11;;;;;;;14.8;12.75;;;;;;;11.18;83.36816;95114.29;;;;
2020/09/20 00:41:11;;;;;;;14.8;12.75;;;;;;;11.18;83.36816;95114.29;;;;
2020/09/20 00:42:12;;;;;;;14.8;12.75;;;;;;;11.18;83.36816;95114.29;;;;
2020/09/20 00:43:12;;;;;;;14.8;12.75;;;;;;;11.18;83.36816;95114.29;;;;
2020/09/20 00:44:12;;;;;;;14.8;12.75;;;;;;;11.18;83.36816;95114.29;;;;
2020/09/20 00:45:13;;;;;;;14.8;12.75;;;;;;;11.18;83.36816;95114.29;;;;
2020/09/20 00:46:14;;;;;;;14.8;12.75;;;;;;;11.18;83.36816;95114.29;;;;
2020/09/20 00:47:16;;;;;;;15.95;13.15;;;;;;;11.03;83.74512;95107.67;;;;
2020/09/20 00:48:16;;;;;;;15.95;13.15;;;;;;;11.03;83.74512;95107.67;;;;
2020/09/20 00:49:17;;;;;;;15.95;13.15;;;;;;;11.03;83.74512;95107.67;;;;
2020/09/20 00:50:17;;;;;;;15.95;13.15;;;;;;;11.03;83.74512;95107.67;;;;
2020/09/20 00:51:18;;;;;;;15.95;13.15;;;;;;;11.03;83.74512;95107.67;;;;
2020/09/20 00:52:18;;;;;;;15.95;13.15;;;;;;;11.03;83.74512;95107.67;;;;
2020/09/20 00:53:19;;;;;;;15.95;13.15;;;;;;;11.03;83.74512;95107.67;;;;
2020/09/20 00:54:35;;;;;;;15.95;13.15;;;;;;;11.03;83.74512;95107.67;;;;
2020/09/20 00:55:42;;;;;;;15.95;13.15;;;;;;;11.03;83.74512;95107.67;;;;
2020/09/20 00:56:51;;;;;;;15.95;13.15;;;;;;;11.03;83.74512;95107.67;;;;
2020/09/20 00:58:00;;;;;;;15.5;12.9;;;;;;;10.99;84.06738;95098.95;;;;
2020/09/20 00:59:06;;;;;;;15.5;12.9;;;;;;;10.99;84.06738;95098.95;;;;
2020/09/20 01:00:08;;;;;;;15.5;12.9;;;;;;;10.99;84.06738;95098.95;;;;
2020/09/20 01:01:12;;;;;;;15.5;12.9;;;;;;;10.99;84.06738;95098.95;;;;
2020/09/20 01:02:12;;;;;;;15.5;12.9;;;;;;;10.99;84.06738;95098.95;;;;
2020/09/20 01:03:13;;;;;;;15.5;12.9;;;;;;;10.99;84.06738;95098.95;;;;
2020/09/20 01:04:13;;;;;;;15.5;12.9;;;;;;;10.99;84.06738;95098.95;;;;
2020/09/20 01:05:14;;;;;;;15.5;12.9;;;;;;;10.99;84.06738;95098.95;;;;
2020/09/20 01:06:15;;;;;;;15.5;12.9;;;;;;;10.99;84.06738;95098.95;;;;
2020/09/20 01:07:16;;;;;;;15.5;12.9;;;;;;;10.99;84.06738;95098.95;;;;
2020/09/20 01:08:16;;;;;;;16.45;14.65;;;;;;;10.89;84.34766;95087.42;;;;
2020/09/20 01:09:17;;;;;;;16.45;14.65;;;;;;;10.89;84.34766;95087.42;;;;
2020/09/20 01:10:17;;;;;;;16.45;14.65;;;;;;;10.89;84.34766;95087.42;;;;
2020/09/20 01:11:17;;;;;;;16.45;14.65;;;;;;;10.89;84.34766;95087.42;;;;
2020/09/20 01:12:18;;;;;;;16.45;14.65;;;;;;;10.89;84.34766;95087.42;;;;
2020/09/20 01:13:19;;;;;;;16.45;14.65;;;;;;;10.89;84.34766;95087.42;;;;
2020/09/20 01:14:19;;;;;;;16.45;14.65;;;;;;;10.89;84.34766;95087.42;;;;
2020/09/20 01:15:20;;;;;;;16.45;14.65;;;;;;;10.89;84.34766;95087.42;;;;
2020/09/20 01:16:20;;;;;;;16.45;14.65;;;;;;;10.89;84.34766;95087.42;;;;
2020/09/20 01:17:21;;;;;;;16.45;14.65;;;;;;;10.89;84.34766;95087.42;;;;
2020/09/20 01:18:21;;;;;;;16.45;14.65;;;;;;;10.89;84.34766;95087.42;;;;
2020/09/20 01:19:22;;;;;;;16.4;14.7;;;;;;;10.86;84.57715;95081.58;;;;
2020/09/20 01:20:22;;;;;;;16.4;14.7;;;;;;;10.86;84.57715;95081.58;;;;
2020/09/20 01:21:23;;;;;;;16.4;14.7;;;;;;;10.86;84.57715;95081.58;;;;
2020/09/20 01:22:23;;;;;;;16.4;14.7;;;;;;;10.86;84.57715;95081.58;;;;
2020/09/20 01:23:24;;;;;;;16.4;14.7;;;;;;;10.86;84.57715;95081.58;;;;
2020/09/20 01:24:24;;;;;;;16.4;14.7;;;;;;;10.86;84.57715;95081.58;;;;
2020/09/20 01:25:25;;;;;;;16.4;14.7;;;;;;;10.86;84.57715;95081.58;;;;
2020/09/20 01:26:25;;;;;;;16.4;14.7;;;;;;;10.86;84.57715;95081.58;;;;
2020/09/20 01:27:26;;;;;;;16.4;14.7;;;;;;;10.86;84.57715;95081.58;;;;
2020/09/20 01:28:26;;;;;;;16.4;14.7;;;;;;;10.86;84.57715;95081.58;;;;
2020/09/20 01:29:27;;;;;;;17.1;15.35;;;;;;;10.78;84.97754;95078.42;;;;
2020/09/20 01:30:27;;;;;;;17.1;15.35;;;;;;;10.78;84.97754;95078.42;;;;
2020/09/20 01:31:28;;;;;;;17.1;15.35;;;;;;;10.78;84.97754;95078.42;;;;
2020/09/20 01:32:28;;;;;;;17.1;15.35;;;;;;;10.78;84.97754;95078.42;;;;
2020/09/20 01:33:29;;;;;;;17.1;15.35;;;;;;;10.78;84.97754;95078.42;;;;
2020/09/20 01:34:29;;;;;;;17.1;15.35;;;;;;;10.78;84.97754;95078.42;;;;
2020/09/20 01:35:30;;;;;;;17.1;15.35;;;;;;;10.78;84.97754;95078.42;;;;
2020/09/20 01:36:30;;;;;;;17.1;15.35;;;;;;;10.78;84.97754;95078.42;;;;
2020/09/20 01:37:31;;;;;;;17.1;15.35;;;;;;;10.78;84.97754;95078.42;;;;
2020/09/20 01:38:31;;;;;;;17.1;15.35;;;;;;;10.78;84.97754;95078.42;;;;
2020/09/20 01:39:32;;;;;;;17.1;15.35;;;;;;;10.78;84.97754;95078.42;;;;
2020/09/20 01:40:33;;;;;;;19.05;17.05;;;;;;;10.79;85.25684;95073.33;;;;
2020/09/20 01:41:34;;;;;;;19.05;17.05;;;;;;;10.79;85.25684;95073.33;;;;
2020/09/20 01:42:35;;;;;;;19.05;17.05;;;;;;;10.79;85.25684;95073.33;;;;
2020/09/20 01:43:35;;;;;;;19.05;17.05;;;;;;;10.79;85.25684;95073.33;;;;
2020/09/20 01:44:36;;;;;;;19.05;17.05;;;;;;;10.79;85.25684;95073.33;;;;
2020/09/20 01:45:36;;;;;;;19.05;17.05;;;;;;;10.79;85.25684;95073.33;;;;
2020/09/20 01:46:37;;;;;;;19.05;17.05;;;;;;;10.79;85.25684;95073.33;;;;
2020/09/20 01:47:37;;;;;;;19.05;17.05;;;;;;;10.79;85.25684;95073.33;;;;
2020/09/20 01:48:38;;;;;;;19.05;17.05;;;;;;;10.79;85.25684;95073.33;;;;
2020/09/20 01:49:38;;;;;;;19.05;17.05;;;;;;;10.79;85.25684;95073.33;;;;
2020/09/20 01:50:39;;;;;;;19.05;17.05;;;;;;;10.79;85.25684;95073.33;;;;
2020/09/20 01:51:39;;;;;;;20.55;18.35;;;;;;;10.73;85.54395;95062.14;;;;
2020/09/20 01:52:40;;;;;;;20.55;18.35;;;;;;;10.73;85.54395;95062.14;;;;
2020/09/20 01:53:40;;;;;;;20.55;18.35;;;;;;;10.73;85.54395;95062.14;;;;
2020/09/20 01:54:41;;;;;;;20.55;18.35;;;;;;;10.73;85.54395;95062.14;;;;
2020/09/20 01:55:41;;;;;;;20.55;18.35;;;;;;;10.73;85.54395;95062.14;;;;
2020/09/20 01:56:42;;;;;;;20.55;18.35;;;;;;;10.73;85.54395;95062.14;;;;
2020/09/20 01:57:42;;;;;;;20.55;18.35;;;;;;;10.73;85.54395;95062.14;;;;
2020/09/20 01:58:43;;;;;;;20.55;18.35;;;;;;;10.73;85.54395;95062.14;;;;
2020/09/20 01:59:43;;;;;;;20.55;18.35;;;;;;;10.73;85.54395;95062.14;;;;
2020/09/20 02:00:44;;;;;;;20.55;18.35;;;;;;;10.73;85.54395;95062.14;;;;
2020/09/20 02:01:44;;;;;;;19.35;16.75;;;;;;;10.72;85.90527;95050.5;;;;
2020/09/20 02:02:45;;;;;;;19.35;16.75;;;;;;;10.72;85.90527;95050.5;;;;
2020/09/20 02:03:45;;;;;;;19.35;16.75;;;;;;;10.72;85.90527;95050.5;;;;
2020/09/20 02:04:46;;;;;;;19.35;16.75;;;;;;;10.72;85.90527;95050.5;;;;
2020/09/20 02:05:46;;;;;;;19.35;16.75;;;;;;;10.72;85.90527;95050.5;;;;
2020/09/20 02:06:47;;;;;;;19.35;16.75;;;;;;;10.72;85.90527;95050.5;;;;
2020/09/20 02:07:48;;;;;;;19.35;16.75;;;;;;;10.72;85.90527;95050.5;;;;
2020/09/20 02:08:49;;;;;;;19.35;16.75;;;;;;;10.72;85.90527;95050.5;;;;
2020/09/20 02:09:49;;;;;;;19.35;16.75;;;;;;;10.72;85.90527;95050.5;;;;
2020/09/20 02:10:50;;;;;;;19.35;16.75;;;;;;;10.72;85.90527;95050.5;;;;
2020/09/20 02:11:50;;;;;;;19.35;16.75;;;;;;;10.72;85.90527;95050.5;;;;
2020/09/20 02:12:51;;;;;;;21;16.55;;;;;;;10.61;86.03027;95036.66;;;;
2020/09/20 02:13:51;;;;;;;21;16.55;;;;;;;10.61;86.03027;95036.66;;;;
2020/09/20 02:14:52;;;;;;;21;16.55;;;;;;;10.61;86.03027;95036.66;;;;
2020/09/20 02:15:52;;;;;;;21;16.55;;;;;;;10.61;86.03027;95036.66;;;;
2020/09/20 02:16:53;;;;;;;21;16.55;;;;;;;10.61;86.03027;95036.66;;;;
2020/09/20 02:17:53;;;;;;;21;16.55;;;;;;;10.61;86.03027;95036.66;;;;
2020/09/20 02:18:54;;;;;;;21;16.55;;;;;;;10.61;86.03027;95036.66;;;;
2020/09/20 02:19:54;;;;;;;21;16.55;;;;;;;10.61;86.03027;95036.66;;;;
2020/09/20 02:20:55;;;;;;;21;16.55;;;;;;;10.61;86.03027;95036.66;;;;
2020/09/20 02:21:55;;;;;;;21;16.55;;;;;;;10.61;86.03027;95036.66;;;;
2020/09/20 02:22:56;;;;;;;18.55;16.55;;;;;;;10.55;86.37305;95042.91;;;;
2020/09/20 02:23:56;;;;;;;18.55;16.55;;;;;;;10.55;86.37305;95042.91;;;;
2020/09/20 02:24:57;;;;;;;18.55;16.55;;;;;;;10.55;86.37305;95042.91;;;;
2020/09/20 02:25:57;;;;;;;18.55;16.55;;;;;;;10.55;86.37305;95042.91;;;;
2020/09/20 02:26:58;;;;;;;18.55;16.55;;;;;;;10.55;86.37305;95042.91;;;;
2020/09/20 02:27:58;;;;;;;18.55;16.55;;;;;;;10.55;86.37305;95042.91;;;;
2020/09/20 02:28:59;;;;;;;18.55;16.55;;;;;;;10.55;86.37305;95042.91;;;;
2020/09/20 02:29:59;;;;;;;18.55;16.55;;;;;;;10.55;86.37305;95042.91;;;;
2020/09/20 02:31:00;;;;;;;18.55;16.55;;;;;;;10.55;86.37305;95042.91;;;;
2020/09/20 02:32:00;;;;;;;18.55;16.55;;;;;;;10.55;86.37305;95042.91;;;;
2020/09/20 02:33:01;;;;;;;18.55;16.55;;;;;;;10.55;86.37305;95042.91;;;;
2020/09/20 02:34:01;;;;;;;18.65;16.7;;;;;;;10.43;86.60645;95046.58;;;;
2020/09/20 02:35:02;;;;;;;18.65;16.7;;;;;;;10.43;86.60645;95046.58;;;;
2020/09/20 02:36:02;;;;;;;18.65;16.7;;;;;;;10.43;86.60645;95046.58;;;;
2020/09/20 02:37:03;;;;;;;18.65;16.7;;;;;;;10.43;86.60645;95046.58;;;;
2020/09/20 02:38:03;;;;;;;18.65;16.7;;;;;;;10.43;86.60645;95046.58;;;;
2020/09/20 02:39:04;;;;;;;18.65;16.7;;;;;;;10.43;86.60645;95046.58;;;;
2020/09/20 02:40:04;;;;;;;18.65;16.7;;;;;;;10.43;86.60645;95046.58;;;;
2020/09/20 02:41:05;;;;;;;18.65;16.7;;;;;;;10.43;86.60645;95046.58;;;;
2020/09/20 02:42:07;;;;;;;18.65;16.7;;;;;;;10.43;86.60645;95046.58;;;;
2020/09/20 02:43:08;;;;;;;18.65;16.7;;;;;;;10.43;86.60645;95046.58;;;;
2020/09/20 02:44:08;;;;;;;18.8;15.95;;;;;;;10.33;87.00977;95046.5;;;;
2020/09/20 02:45:09;;;;;;;18.8;15.95;;;;;;;10.33;87.00977;95046.5;;;;
2020/09/20 02:46:09;;;;;;;18.8;15.95;;;;;;;10.33;87.00977;95046.5;;;;
2020/09/20 02:47:10;;;;;;;18.8;15.95;;;;;;;10.33;87.00977;95046.5;;;;
2020/09/20 02:48:10;;;;;;;18.8;15.95;;;;;;;10.33;87.00977;95046.5;;;;
2020/09/20 02:49:11;;;;;;;18.8;15.95;;;;;;;10.33;87.00977;95046.5;;;;
2020/09/20 02:50:11;;;;;;;18.8;15.95;;;;;;;10.33;87.00977;95046.5;;;;
2020/09/20 02:51:12;;;;;;;18.8;15.95;;;;;;;10.33;87.00977;95046.5;;;;
2020/09/20 02:52:12;;;;;;;18.8;15.95;;;;;;;10.33;87.00977;95046.5;;;;
2020/09/20 02:53:13;;;;;;;18.8;15.95;;;;;;;10.33;87.00977;95046.5;;;;
2020/09/20 02:54:13;;;;;;;18.8;15.95;;;;;;;10.33;87.00977;95046.5;;;;
2020/09/20 02:55:14;;;;;;;18.4;15.7;;;;;;;10.24;87.32324;95035.69;;;;
2020/09/20 02:56:14;;;;;;;18.4;15.7;;;;;;;10.24;87.32324;95035.69;;;;
2020/09/20 02:57:15;;;;;;;18.4;15.7;;;;;;;10.24;87.32324;95035.69;;;;
2020/09/20 02:58:15;;;;;;;18.4;15.7;;;;;;;10.24;87.32324;95035.69;;;;
2020/09/20 02:59:16;;;;;;;18.4;15.7;;;;;;;10.24;87.32324;95035.69;;;;
2020/09/20 03:00:16;;;;;;;18.4;15.7;;;;;;;10.24;87.32324;95035.69;;;;
2020/09/20 03:01:17;;;;;;;18.4;15.7;;;;;;;10.24;87.32324;95035.69;;;;
2020/09/20 03:02:17;;;;;;;18.4;15.7;;;;;;;10.24;87.32324;95035.69;;;;
2020/09/20 03:03:18;;;;;;;18.4;15.7;;;;;;;10.24;87.32324;95035.69;;;;
2020/09/20 03:04:18;;;;;;;18.4;15.7;;;;;;;10.24;87.32324;95035.69;;;;
2020/09/20 03:05:20;;;;;;;18.4;15.7;;;;;;;10.24;87.32324;95035.69;;;;
2020/09/20 03:06:20;;;;;;;18.35;16.4;;;;;;;10.23;87.43848;95052.95;;;;
2020/09/20 03:07:21;;;;;;;18.35;16.4;;;;;;;10.23;87.43848;95052.95;;;;
2020/09/20 03:08:21;;;;;;;18.35;16.4;;;;;;;10.23;87.43848;95052.95;;;;
2020/09/20 03:09:22;;;;;;;18.35;16.4;;;;;;;10.23;87.43848;95052.95;;;;
2020/09/20 03:10:22;;;;;;;18.35;16.4;;;;;;;10.23;87.43848;95052.95;;;;
2020/09/20 03:11:23;;;;;;;18.35;16.4;;;;;;;10.23;87.43848;95052.95;;;;
2020/09/20 03:12:23;;;;;;;18.35;16.4;;;;;;;10.23;87.43848;95052.95;;;;
2020/09/20 03:13:24;;;;;;;18.35;16.4;;;;;;;10.23;87.43848;95052.95;;;;
2020/09/20 03:14:24;;;;;;;18.35;16.4;;;;;;;10.23;87.43848;95052.95;;;;
2020/09/20 03:15:25;;;;;;;18.35;16.4;;;;;;;10.23;87.43848;95052.95;;;;
2020/09/20 03:16:25;;;;;;;18.05;15.75;;;;;;;10.15;87.5498;95042.63;;;;
2020/09/20 03:17:26;;;;;;;18.05;15.75;;;;;;;10.15;87.5498;95042.63;;;;
2020/09/20 03:18:27;;;;;;;18.05;15.75;;;;;;;10.15;87.5498;95042.63;;;;
2020/09/20 03:19:27;;;;;;;18.05;15.75;;;;;;;10.15;87.5498;95042.63;;;;
2020/09/20 03:20:28;;;;;;;18.05;15.75;;;;;;;10.15;87.5498;95042.63;;;;
2020/09/20 03:21:30;;;;;;;18.05;15.75;;;;;;;10.15;87.5498;95042.63;;;;
2020/09/20 03:22:30;;;;;;;18.05;15.75;;;;;;;10.15;87.5498;95042.63;;;;
2020/09/20 03:23:31;;;;;;;18.05;15.75;;;;;;;10.15;87.5498;95042.63;;;;
2020/09/20 03:24:31;;;;;;;18.05;15.75;;;;;;;10.15;87.5498;95042.63;;;;
2020/09/20 03:25:32;;;;;;;18.05;15.75;;;;;;;10.15;87.5498;95042.63;;;;
2020/09/20 03:26:32;;;;;;;18.05;15.75;;;;;;;10.15;87.5498;95042.63;;;;
2020/09/20 03:27:33;;;;;;;18.6;15.95;;;;;;;10.14;87.77344;95056.67;;;;
2020/09/20 03:28:33;;;;;;;18.6;15.95;;;;;;;10.14;87.77344;95056.67;;;;
2020/09/20 03:29:33;;;;;;;18.6;15.95;;;;;;;10.14;87.77344;95056.67;;;;
2020/09/20 03:30:34;;;;;;;18.6;15.95;;;;;;;10.14;87.77344;95056.67;;;;
2020/09/20 03:31:35;;;;;;;18.6;15.95;;;;;;;10.14;87.77344;95056.67;;;;
2020/09/20 03:32:35;;;;;;;18.6;15.95;;;;;;;10.14;87.77344;95056.67;;;;
2020/09/20 03:33:36;;;;;;;18.6;15.95;;;;;;;10.14;87.77344;95056.67;;;;
2020/09/20 03:34:36;;;;;;;18.6;15.95;;;;;;;10.14;87.77344;95056.67;;;;
2020/09/20 03:35:37;;;;;;;18.6;15.95;;;;;;;10.14;87.77344;95056.67;;;;
2020/09/20 03:36:37;;;;;;;18.6;15.95;;;;;;;10.14;87.77344;95056.67;;;;
2020/09/20 03:37:38;;;;;;;18.95;15.75;;;;;;;10.05;87.94629;95054.96;;;;
2020/09/20 03:38:38;;;;;;;18.95;15.75;;;;;;;10.05;87.94629;95054.96;;;;
2020/09/20 03:39:39;;;;;;;18.95;15.75;;;;;;;10.05;87.94629;95054.96;;;;
2020/09/20 03:40:39;;;;;;;18.95;15.75;;;;;;;10.05;87.94629;95054.96;;;;
2020/09/20 03:41:40;;;;;;;18.95;15.75;;;;;;;10.05;87.94629;95054.96;;;;
2020/09/20 03:42:41;;;;;;;18.95;15.75;;;;;;;10.05;87.94629;95054.96;;;;
2020/09/20 03:43:41;;;;;;;18.95;15.75;;;;;;;10.05;87.94629;95054.96;;;;
2020/09/20 03:44:44;;;;;;;18.95;15.75;;;;;;;10.05;87.94629;95054.96;;;;
2020/09/20 03:45:47;;;;;;;18.95;15.75;;;;;;;10.05;87.94629;95054.96;;;;
2020/09/20 03:46:48;;;;;;;18.95;15.75;;;;;;;10.05;87.94629;95054.96;;;;
2020/09/20 03:47:54;;;;;;;18.95;15.75;;;;;;;10.05;87.94629;95054.96;;;;
2020/09/20 03:49:00;;;;;;;17.65;14.9;;;;;;;10.02;88.13184;95058.94;;;;
2020/09/20 03:50:00;;;;;;;17.65;14.9;;;;;;;10.02;88.13184;95058.94;;;;
2020/09/20 03:51:01;;;;;;;17.65;14.9;;;;;;;10.02;88.13184;95058.94;;;;
2020/09/20 03:52:02;;;;;;;17.65;14.9;;;;;;;10.02;88.13184;95058.94;;;;
2020/09/20 03:53:03;;;;;;;17.65;14.9;;;;;;;10.02;88.13184;95058.94;;;;
2020/09/20 03:54:07;;;;;;;17.65;14.9;;;;;;;10.02;88.13184;95058.94;;;;
2020/09/20 03:55:07;;;;;;;17.65;14.9;;;;;;;10.02;88.13184;95058.94;;;;
2020/09/20 03:56:09;;;;;;;17.65;14.9;;;;;;;10.02;88.13184;95058.94;;;;
2020/09/20 03:57:12;;;;;;;17.65;14.9;;;;;;;10.02;88.13184;95058.94;;;;
2020/09/20 03:58:13;;;;;;;17.65;14.9;;;;;;;10.02;88.13184;95058.94;;;;
2020/09/20 03:59:23;;;;;;;15.7;13.3;;;;;;;9.93;88.48535;95065.34;;;;
2020/09/20 04:00:23;;;;;;;15.7;13.3;;;;;;;9.93;88.48535;95065.34;;;;
2020/09/20 04:01:25;;;;;;;15.7;13.3;;;;;;;9.93;88.48535;95065.34;;;;
2020/09/20 04:02:25;;;;;;;15.7;13.3;;;;;;;9.93;88.48535;95065.34;;;;
2020/09/20 04:03:26;;;;;;;15.7;13.3;;;;;;;9.93;88.48535;95065.34;;;;
2020/09/20 04:04:27;;;;;;;15.7;13.3;;;;;;;9.93;88.48535;95065.34;;;;
2020/09/20 04:05:37;;;;;;;15.7;13.3;;;;;;;9.93;88.48535;95065.34;;;;
2020/09/20 04:06:37;;;;;;;15.7;13.3;;;;;;;9.93;88.48535;95065.34;;;;
2020/09/20 04:07:37;;;;;;;15.7;13.3;;;;;;;9.93;88.48535;95065.34;;;;
2020/09/20 04:08:38;;;;;;;15.7;13.3;;;;;;;9.93;88.48535;95065.34;;;;
2020/09/20 04:09:39;;;;;;;15.75;14.1;;;;;;;9.81;88.82227;95076.67;;;;
2020/09/20 04:10:58;;;;;;;15.75;14.1;;;;;;;9.81;88.82227;95076.67;;;;
2020/09/20 04:11:58;;;;;;;15.75;14.1;;;;;;;9.81;88.82227;95076.67;;;;
2020/09/20 04:12:59;;;;;;;15.75;14.1;;;;;;;9.81;88.82227;95076.67;;;;
2020/09/20 04:14:00;;;;;;;15.75;14.1;;;;;;;9.81;88.82227;95076.67;;;;
2020/09/20 04:15:02;;;;;;;15.75;14.1;;;;;;;9.81;88.82227;95076.67;;;;
2020/09/20 04:16:06;;;;;;;15.75;14.1;;;;;;;9.81;88.82227;95076.67;;;;
2020/09/20 04:17:06;;;;;;;15.75;14.1;;;;;;;9.81;88.82227;95076.67;;;;
2020/09/20 04:18:07;;;;;;;15.75;14.1;;;;;;;9.81;88.82227;95076.67;;;;
2020/09/20 04:19:08;;;;;;;15.75;14.1;;;;;;;9.81;88.82227;95076.67;;;;
2020/09/20 04:20:10;;;;;;;17.05;14.4;;;;;;;9.73;89.07031;95069.9;;;;
2020/09/20 04:21:12;;;;;;;17.05;14.4;;;;;;;9.73;89.07031;95069.9;;;;
2020/09/20 04:22:21;;;;;;;17.05;14.4;;;;;;;9.73;89.07031;95069.9;;;;
2020/09/20 04:23:22;;;;;;;17.05;14.4;;;;;;;9.73;89.07031;95069.9;;;;
2020/09/20 04:24:36;;;;;;;17.05;14.4;;;;;;;9.73;89.07031;95069.9;;;;
2020/09/20 04:25:37;;;;;;;17.05;14.4;;;;;;;9.73;89.07031;95069.9;;;;
2020/09/20 04:26:37;;;;;;;17.05;14.4;;;;;;;9.73;89.07031;95069.9;;;;
2020/09/20 04:27:39;;;;;;;17.05;14.4;;;;;;;9.73;89.07031;95069.9;;;;
2020/09/20 04:28:39;;;;;;;17.05;14.4;;;;;;;9.73;89.07031;95069.9;;;;
2020/09/20 04:29:41;;;;;;;17.05;14.4;;;;;;;9.73;89.07031;95069.9;;;;
2020/09/20 04:30:42;;;;;;;17.05;14.4;;;;;;;9.73;89.07031;95069.9;;;;
2020/09/20 04:31:45;;;;;;;17.35;14.15;;;;;;;9.71;89.02637;95067.44;;;;
2020/09/20 04:32:49;;;;;;;17.35;14.15;;;;;;;9.71;89.02637;95067.44;;;;
2020/09/20 04:33:54;;;;;;;17.35;14.15;;;;;;;9.71;89.02637;95067.44;;;;
2020/09/20 04:34:55;;;;;;;17.35;14.15;;;;;;;9.71;89.02637;95067.44;;;;
2020/09/20 04:35:58;;;;;;;17.35;14.15;;;;;;;9.71;89.02637;95067.44;;;;
2020/09/20 04:36:59;;;;;;;17.35;14.15;;;;;;;9.71;89.02637;95067.44;;;;
2020/09/20 04:38:04;;;;;;;17.35;14.15;;;;;;;9.71;89.02637;95067.44;;;;
2020/09/20 04:39:10;;;;;;;17.35;14.15;;;;;;;9.71;89.02637;95067.44;;;;
2020/09/20 04:40:11;;;;;;;17.35;14.15;;;;;;;9.71;89.02637;95067.44;;;;
2020/09/20 04:41:18;;;;;;;17.35;14.15;;;;;;;9.71;89.02637;95067.44;;;;
2020/09/20 04:42:19;;;;;;;17.8;13.35;;;;;;;9.64;89.09766;95061.36;;;;
2020/09/20 04:43:22;;;;;;;17.8;13.35;;;;;;;9.64;89.09766;95061.36;;;;
2020/09/20 04:44:23;;;;;;;17.8;13.35;;;;;;;9.64;89.09766;95061.36;;;;
2020/09/20 04:45:25;;;;;;;17.8;13.35;;;;;;;9.64;89.09766;95061.36;;;;
2020/09/20 04:46:28;;;;;;;17.8;13.35;;;;;;;9.64;89.09766;95061.36;;;;
2020/09/20 04:47:38;;;;;;;17.8;13.35;;;;;;;9.64;89.09766;95061.36;;;;
2020/09/20 04:48:40;;;;;;;17.8;13.35;;;;;;;9.64;89.09766;95061.36;;;;
2020/09/20 04:49:41;;;;;;;17.8;13.35;;;;;;;9.64;89.09766;95061.36;;;;
2020/09/20 04:50:43;;;;;;;17.8;13.35;;;;;;;9.64;89.09766;95061.36;;;;
2020/09/20 04:51:45;;;;;;;17.8;13.35;;;;;;;9.64;89.09766;95061.36;;;;
2020/09/20 04:52:46;;;;;;;14.55;12.4;;;;;;;9.66;89.17578;95055.58;;;;
2020/09/20 04:53:47;;;;;;;14.55;12.4;;;;;;;9.66;89.17578;95055.58;;;;
2020/09/20 04:54:48;;;;;;;14.55;12.4;;;;;;;9.66;89.17578;95055.58;;;;
2020/09/20 04:55:48;;;;;;;14.55;12.4;;;;;;;9.66;89.17578;95055.58;;;;
2020/09/20 04:56:49;;;;;;;14.55;12.4;;;;;;;9.66;89.17578;95055.58;;;;
2020/09/20 04:57:49;;;;;;;14.55;12.4;;;;;;;9.66;89.17578;95055.58;;;;
2020/09/20 04:58:50;;;;;;;14.55;12.4;;;;;;;9.66;89.17578;95055.58;;;;
2020/09/20 04:59:50;;;;;;;14.55;12.4;;;;;;;9.66;89.17578;95055.58;;;;
2020/09/20 05:00:51;;;;;;;14.55;12.4;;;;;;;9.66;89.17578;95055.58;;;;
2020/09/20 05:02:03;;;;;;;14.55;12.4;;;;;;;9.66;89.17578;95055.58;;;;
2020/09/20 05:03:12;;;;;;;14.65;12.45;;;;;;;9.69;89.28613;95055.66;;;;
2020/09/20 05:04:12;;;;;;;14.65;12.45;;;;;;;9.69;89.28613;95055.66;;;;
2020/09/20 05:05:13;;;;;;;14.65;12.45;;;;;;;9.69;89.28613;95055.66;;;;
2020/09/20 05:06:24;;;;;;;14.65;12.45;;;;;;;9.69;89.28613;95055.66;;;;
2020/09/20 05:07:26;;;;;;;14.65;12.45;;;;;;;9.69;89.28613;95055.66;;;;
2020/09/20 05:08:27;;;;;;;14.65;12.45;;;;;;;9.69;89.28613;95055.66;;;;
2020/09/20 05:09:28;;;;;;;14.65;12.45;;;;;;;9.69;89.28613;95055.66;;;;
2020/09/20 05:10:45;;;;;;;14.65;12.45;;;;;;;9.69;89.28613;95055.66;;;;
2020/09/20 05:11:49;;;;;;;14.65;12.45;;;;;;;9.69;89.28613;95055.66;;;;
2020/09/20 05:12:49;;;;;;;14.65;12.45;;;;;;;9.69;89.28613;95055.66;;;;
2020/09/20 05:13:50;;;;;;;14.15;12.2;;;;;;;9.84;89.15723;95056.94;;;;
2020/09/20 05:14:50;;;;;;;14.15;12.2;;;;;;;9.84;89.15723;95056.94;;;;
2020/09/20 05:15:51;;;;;;;14.15;12.2;;;;;;;9.84;89.15723;95056.94;;;;
2020/09/20 05:16:53;;;;;;;14.15;12.2;;;;;;;9.84;89.15723;95056.94;;;;
2020/09/20 05:17:53;;;;;;;14.15;12.2;;;;;;;9.84;89.15723;95056.94;;;;
2020/09/20 05:18:54;;;;;;;14.15;12.2;;;;;;;9.84;89.15723;95056.94;;;;
2020/09/20 05:19:54;;;;;;;14.15;12.2;;;;;;;9.84;89.15723;95056.94;;;;
2020/09/20 05:20:55;;;;;;;14.15;12.2;;;;;;;9.84;89.15723;95056.94;;;;
2020/09/20 05:22:08;;;;;;;14.15;12.2;;;;;;;9.84;89.15723;95056.94;;;;
2020/09/20 05:23:08;;;;;;;14.15;12.2;;;;;;;9.84;89.15723;95056.94;;;;
2020/09/20 05:24:10;;;;;;;14.15;12.2;;;;;;;9.84;89.15723;95056.94;;;;
2020/09/20 05:25:11;;;;;;;12.9;11.65;;;;;;;10.03;88.77246;95070.97;;;;
2020/09/20 05:26:11;;;;;;;12.9;11.65;;;;;;;10.03;88.77246;95070.97;;;;
2020/09/20 05:27:12;;;;;;;12.9;11.65;;;;;;;10.03;88.77246;95070.97;;;;
2020/09/20 05:28:14;;;;;;;12.9;11.65;;;;;;;10.03;88.77246;95070.97;;;;
2020/09/20 05:29:14;;;;;;;12.9;11.65;;;;;;;10.03;88.77246;95070.97;;;;
2020/09/20 05:30:16;;;;;;;12.9;11.65;;;;;;;10.03;88.77246;95070.97;;;;
2020/09/20 05:31:26;;;;;;;12.9;11.65;;;;;;;10.03;88.77246;95070.97;;;;
2020/09/20 05:32:28;;;;;;;12.9;11.65;;;;;;;10.03;88.77246;95070.97;;;;
2020/09/20 05:33:28;;;;;;;12.9;11.65;;;;;;;10.03;88.77246;95070.97;;;;
2020/09/20 05:34:31;;;;;;;12.9;11.65;;;;;;;10.03;88.77246;95070.97;;;;
2020/09/20 05:35:31;;;;;;;13.15;11.7;;;;;;;10.19;88.90039;95079.28;;;;
2020/09/20 05:36:36;;;;;;;13.15;11.7;;;;;;;10.19;88.90039;95079.28;;;;
2020/09/20 05:37:38;;;;;;;13.15;11.7;;;;;;;10.19;88.90039;95079.28;;;;
2020/09/20 05:38:46;;;;;;;13.15;11.7;;;;;;;10.19;88.90039;95079.28;;;;
2020/09/20 05:39:46;;;;;;;13.15;11.7;;;;;;;10.19;88.90039;95079.28;;;;
2020/09/20 05:40:47;;;;;;;13.15;11.7;;;;;;;10.19;88.90039;95079.28;;;;
2020/09/20 05:41:48;;;;;;;13.15;11.7;;;;;;;10.19;88.90039;95079.28;;;;
2020/09/20 05:42:48;;;;;;;13.15;11.7;;;;;;;10.19;88.90039;95079.28;;;;
2020/09/20 05:43:49;;;;;;;13.15;11.7;;;;;;;10.19;88.90039;95079.28;;;;